sensor_id;sensor_type;location;lat;lon;timestamp;pressure;altitude;pressure_sealevel;temperature;humidity
61939;BME280;47897;50.322;18.892;2022-10-04T00:01:21;57844.66;;;-145.38;85.70
61939;BME280;47897;50.322;18.892;2022-10-04T00:04:20;57828.93;;;-145.38;85.69
61939;BME280;47897;50.322;18.892;2022-10-04T00:10:12;57829.36;;;-145.38;85.83
61939;BME280;47897;50.322;18.892;2022-10-04T00:13:05;57834.03;;;-145.38;85.71
61939;BME280;47897;50.322;18.892;2022-10-04T00:15:51;57834.88;;;-145.38;85.79
61939;BME280;47897;50.322;18.892;2022-10-04T00:18:40;57818.73;;;-145.38;85.75
61939;BME280;47897;50.322;18.892;2022-10-04T00:24:35;57828.93;;;-145.38;85.85
61939;BME280;47897;50.322;18.892;2022-10-04T00:27:23;57839.13;;;-145.38;85.83
61939;BME280;47897;50.322;18.892;2022-10-04T00:30:23;57820.43;;;-145.38;85.82
61939;BME280;47897;50.322;18.892;2022-10-04T00:33:07;57805.98;;;-145.38;85.55
61939;BME280;47897;50.322;18.892;2022-10-04T00:35:51;57832.75;;;-145.38;85.54
61939;BME280;47897;50.322;18.892;2022-10-04T00:38:35;57831.48;;;-145.38;85.51
61939;BME280;47897;50.322;18.892;2022-10-04T00:41:20;57835.30;;;-145.38;85.49
61939;BME280;47897;50.322;18.892;2022-10-04T00:44:11;57826.38;;;-145.38;85.41
61939;BME280;47897;50.322;18.892;2022-10-04T00:47:00;57828.51;;;-145.38;85.36
61939;BME280;47897;50.322;18.892;2022-10-04T00:49:47;57843.80;;;-145.38;85.38
61939;BME280;47897;50.322;18.892;2022-10-04T00:52:41;57836.57;;;-145.38;85.32
61939;BME280;47897;50.322;18.892;2022-10-04T00:55:51;57828.08;;;-145.38;85.19
61939;BME280;47897;50.322;18.892;2022-10-04T00:58:46;57840.82;;;-145.38;85.16
61939;BME280;47897;50.322;18.892;2022-10-04T01:01:33;57831.91;;;-145.38;85.15
61939;BME280;47897;50.322;18.892;2022-10-04T01:04:30;57825.53;;;-145.38;85.13
61939;BME280;47897;50.322;18.892;2022-10-04T01:07:21;57833.18;;;-145.38;85.03
61939;BME280;47897;50.322;18.892;2022-10-04T01:10:11;57837.43;;;-145.38;84.94
61939;BME280;47897;50.322;18.892;2022-10-04T01:16:25;57812.36;;;-145.38;84.75
61939;BME280;47897;50.322;18.892;2022-10-04T01:22:30;57833.60;;;-145.38;84.67
61939;BME280;47897;50.322;18.892;2022-10-04T01:25:42;57841.25;;;-145.38;84.64
61939;BME280;47897;50.322;18.892;2022-10-04T01:28:27;57832.75;;;-145.38;84.54
61939;BME280;47897;50.322;18.892;2022-10-04T01:31:11;57810.24;;;-145.38;84.52
61939;BME280;47897;50.322;18.892;2022-10-04T01:33:56;57833.61;;;-145.38;84.54
61939;BME280;47897;50.322;18.892;2022-10-04T01:36:43;57846.35;;;-145.38;84.48
61939;BME280;47897;50.322;18.892;2022-10-04T01:39:28;57839.13;;;-145.38;84.54
61939;BME280;47897;50.322;18.892;2022-10-04T01:42:21;57827.66;;;-145.38;84.57
61939;BME280;47897;50.322;18.892;2022-10-04T01:45:16;57833.61;;;-145.38;84.67
61939;BME280;47897;50.322;18.892;2022-10-04T01:48:11;57841.26;;;-145.38;84.81
61939;BME280;47897;50.322;18.892;2022-10-04T01:50:59;57829.36;;;-145.38;84.85
61939;BME280;47897;50.322;18.892;2022-10-04T01:54:04;57837.43;;;-145.38;85.11
61939;BME280;47897;50.322;18.892;2022-10-04T01:56:52;57822.13;;;-145.38;85.28
61939;BME280;47897;50.322;18.892;2022-10-04T02:00:06;57840.82;;;-145.38;85.45
61939;BME280;47897;50.322;18.892;2022-10-04T02:02:52;57824.68;;;-145.38;85.55
61939;BME280;47897;50.322;18.892;2022-10-04T02:05:50;57845.07;;;-145.38;85.61
61939;BME280;47897;50.322;18.892;2022-10-04T02:08:40;57826.38;;;-145.38;85.66
61939;BME280;47897;50.322;18.892;2022-10-04T02:11:29;57822.55;;;-145.38;85.90
61939;BME280;47897;50.322;18.892;2022-10-04T02:14:16;57826.38;;;-145.38;85.93
61939;BME280;47897;50.322;18.892;2022-10-04T02:17:06;57816.61;;;-145.38;85.97
61939;BME280;47897;50.322;18.892;2022-10-04T02:19:53;57833.61;;;-145.38;86.25
61939;BME280;47897;50.322;18.892;2022-10-04T02:22:38;57827.66;;;-145.38;86.34
61939;BME280;47897;50.322;18.892;2022-10-04T02:25:24;57808.96;;;-145.38;86.32
61939;BME280;47897;50.322;18.892;2022-10-04T02:28:11;57832.76;;;-145.38;86.24
61939;BME280;47897;50.322;18.892;2022-10-04T02:30:58;57831.48;;;-145.38;86.28
61939;BME280;47897;50.322;18.892;2022-10-04T02:34:02;57831.05;;;-145.38;86.38
61939;BME280;47897;50.322;18.892;2022-10-04T02:36:46;57821.28;;;-145.38;86.27
61939;BME280;47897;50.322;18.892;2022-10-04T02:40:02;57843.38;;;-145.38;86.35
61939;BME280;47897;50.322;18.892;2022-10-04T02:45:42;57850.60;;;-145.38;86.28
61939;BME280;47897;50.322;18.892;2022-10-04T02:48:42;57828.51;;;-145.38;86.25
61939;BME280;47897;50.322;18.892;2022-10-04T02:54:21;57824.26;;;-145.38;86.34
61939;BME280;47897;50.322;18.892;2022-10-04T02:57:19;57851.02;;;-145.38;86.37
61939;BME280;47897;50.322;18.892;2022-10-04T03:03:32;57830.63;;;-145.38;86.36
61939;BME280;47897;50.322;18.892;2022-10-04T03:06:19;57842.11;;;-145.38;86.43
61939;BME280;47897;50.322;18.892;2022-10-04T03:09:04;57825.11;;;-145.38;86.25
61939;BME280;47897;50.322;18.892;2022-10-04T03:11:49;57826.38;;;-145.38;86.19
61939;BME280;47897;50.322;18.892;2022-10-04T03:14:37;57830.20;;;-145.38;85.97
61939;BME280;47897;50.322;18.892;2022-10-04T03:17:22;57828.93;;;-145.38;85.83
61939;BME280;47897;50.322;18.892;2022-10-04T03:20:08;57848.05;;;-145.38;85.93
61939;BME280;47897;50.322;18.892;2022-10-04T03:22:55;57828.51;;;-145.38;85.80
61939;BME280;47897;50.322;18.892;2022-10-04T03:25:47;57824.68;;;-145.38;85.83
61939;BME280;47897;50.322;18.892;2022-10-04T03:28:32;57827.23;;;-145.38;85.84
61939;BME280;47897;50.322;18.892;2022-10-04T03:31:19;57822.55;;;-145.38;85.56
61939;BME280;47897;50.322;18.892;2022-10-04T03:34:04;57825.53;;;-145.38;85.64
61939;BME280;47897;50.322;18.892;2022-10-04T03:36:50;57841.25;;;-145.38;85.54
61939;BME280;47897;50.322;18.892;2022-10-04T03:39:39;57830.63;;;-145.38;85.55
61939;BME280;47897;50.322;18.892;2022-10-04T03:42:27;57827.66;;;-145.38;85.29
61939;BME280;47897;50.322;18.892;2022-10-04T03:45:17;57818.30;;;-145.38;85.37
61939;BME280;47897;50.322;18.892;2022-10-04T03:48:05;57827.66;;;-145.38;85.14
61939;BME280;47897;50.322;18.892;2022-10-04T03:50:52;57822.13;;;-145.38;85.01
61939;BME280;47897;50.322;18.892;2022-10-04T03:53:39;57837.85;;;-145.38;84.82
61939;BME280;47897;50.322;18.892;2022-10-04T03:56:32;57834.03;;;-145.38;84.83
61939;BME280;47897;50.322;18.892;2022-10-04T03:59:17;57834.03;;;-145.38;84.60
61939;BME280;47897;50.322;18.892;2022-10-04T04:07:27;57831.05;;;-145.38;84.70
61939;BME280;47897;50.322;18.892;2022-10-04T04:10:01;57837.00;;;-145.38;84.57
61939;BME280;47897;50.322;18.892;2022-10-04T04:12:42;57837.43;;;-145.38;84.40
61939;BME280;47897;50.322;18.892;2022-10-04T04:15:13;57831.91;;;-145.38;84.18
61939;BME280;47897;50.322;18.892;2022-10-04T04:17:43;57839.98;;;-145.38;84.19
61939;BME280;47897;50.322;18.892;2022-10-04T04:22:53;57842.53;;;-145.38;83.82
61939;BME280;47897;50.322;18.892;2022-10-04T04:25:23;57819.58;;;-145.38;83.85
61939;BME280;47897;50.322;18.892;2022-10-04T04:27:53;57822.55;;;-145.38;83.73
61939;BME280;47897;50.322;18.892;2022-10-04T04:30:21;57826.80;;;-145.38;83.66
61939;BME280;47897;50.322;18.892;2022-10-04T04:32:50;57831.48;;;-145.38;83.62
61939;BME280;47897;50.322;18.892;2022-10-04T04:35:24;57838.28;;;-145.38;83.74
61939;BME280;47897;50.322;18.892;2022-10-04T04:38:10;57828.08;;;-145.38;83.63
61939;BME280;47897;50.322;18.892;2022-10-04T04:40:38;57836.57;;;-145.38;83.55
61939;BME280;47897;50.322;18.892;2022-10-04T04:43:05;57827.66;;;-145.38;83.55
61939;BME280;47897;50.322;18.892;2022-10-04T04:45:32;57834.88;;;-145.38;83.60
61939;BME280;47897;50.322;18.892;2022-10-04T04:47:59;57815.34;;;-145.38;83.61
61939;BME280;47897;50.322;18.892;2022-10-04T04:50:29;57828.51;;;-145.38;83.53
61939;BME280;47897;50.322;18.892;2022-10-04T04:55:43;57817.88;;;-145.38;83.64
61939;BME280;47897;50.322;18.892;2022-10-04T04:58:20;57821.71;;;-145.38;83.46
61939;BME280;47897;50.322;18.892;2022-10-04T05:01:20;57826.80;;;-145.38;83.32
61939;BME280;47897;50.322;18.892;2022-10-04T05:06:39;57851.46;;;-145.38;83.19
61939;BME280;47897;50.322;18.892;2022-10-04T05:09:23;57825.96;;;-145.38;83.11
61939;BME280;47897;50.322;18.892;2022-10-04T05:11:51;57826.80;;;-145.38;83.01
61939;BME280;47897;50.322;18.892;2022-10-04T05:14:18;57828.51;;;-145.38;83.06
61939;BME280;47897;50.322;18.892;2022-10-04T05:16:49;57823.41;;;-145.38;83.13
61939;BME280;47897;50.322;18.892;2022-10-04T05:19:17;57828.93;;;-145.38;83.16
61939;BME280;47897;50.322;18.892;2022-10-04T05:21:46;57821.28;;;-145.38;83.16
61939;BME280;47897;50.322;18.892;2022-10-04T05:24:22;57835.30;;;-145.38;83.29
61939;BME280;47897;50.322;18.892;2022-10-04T05:26:56;57828.93;;;-145.38;83.40
61939;BME280;47897;50.322;18.892;2022-10-04T05:29:27;57822.98;;;-145.38;83.45
61939;BME280;47897;50.322;18.892;2022-10-04T05:34:40;57834.46;;;-145.38;83.61
61939;BME280;47897;50.322;18.892;2022-10-04T05:42:15;57833.61;;;-145.38;83.70
61939;BME280;47897;50.322;18.892;2022-10-04T05:44:49;57820.43;;;-145.38;83.73
61939;BME280;47897;50.322;18.892;2022-10-04T05:47:20;57834.03;;;-145.38;83.74
61939;BME280;47897;50.322;18.892;2022-10-04T05:49:56;57834.03;;;-145.38;83.60
61939;BME280;47897;50.322;18.892;2022-10-04T05:52:38;57825.10;;;-145.38;83.58
61939;BME280;47897;50.322;18.892;2022-10-04T05:58:06;57822.98;;;-145.38;83.57
61939;BME280;47897;50.322;18.892;2022-10-04T06:04:10;57817.89;;;-145.38;83.75
61939;BME280;47897;50.322;18.892;2022-10-04T06:11:56;57818.30;;;-145.38;83.86
61939;BME280;47897;50.322;18.892;2022-10-04T06:22:45;57838.70;;;-145.38;83.88
61939;BME280;47897;50.322;18.892;2022-10-04T06:26:00;57839.55;;;-145.38;83.85
61939;BME280;47897;50.322;18.892;2022-10-04T06:28:30;57839.55;;;-145.38;83.99
61939;BME280;47897;50.322;18.892;2022-10-04T06:42:16;57842.11;;;-145.38;83.86
61939;BME280;47897;50.322;18.892;2022-10-04T06:48:06;57817.88;;;-145.38;83.51
61939;BME280;47897;50.322;18.892;2022-10-04T06:50:49;57833.18;;;-145.38;83.51
61939;BME280;47897;50.322;18.892;2022-10-04T06:56:25;57825.53;;;-145.38;83.41
61939;BME280;47897;50.322;18.892;2022-10-04T07:01:53;57822.13;;;-145.38;82.79
61939;BME280;47897;50.322;18.892;2022-10-04T07:10:26;57823.41;;;-145.38;81.96
61939;BME280;47897;50.322;18.892;2022-10-04T07:13:04;57819.58;;;-145.38;81.68
61939;BME280;47897;50.322;18.892;2022-10-04T07:16:22;57845.08;;;-145.38;80.80
61939;BME280;47897;50.322;18.892;2022-10-04T07:18:25;57850.18;;;-145.38;80.64
61939;BME280;47897;50.322;18.892;2022-10-04T07:20:57;57825.53;;;-145.38;80.97
61939;BME280;47897;50.322;18.892;2022-10-04T07:23:28;57823.83;;;-145.38;81.64
61939;BME280;47897;50.322;18.892;2022-10-04T07:26:06;57848.48;;;-145.38;81.39
61939;BME280;47897;50.322;18.892;2022-10-04T07:28:41;57839.55;;;-145.38;80.24
61939;BME280;47897;50.322;18.892;2022-10-04T07:31:29;57841.25;;;-145.38;79.98
61939;BME280;47897;50.322;18.892;2022-10-04T07:34:01;57840.41;;;-145.38;80.09
61939;BME280;47897;50.322;18.892;2022-10-04T07:36:47;57826.80;;;-145.38;79.82
61939;BME280;47897;50.322;18.892;2022-10-04T07:39:26;57821.28;;;-145.38;80.04
61939;BME280;47897;50.322;18.892;2022-10-04T07:41:57;57826.38;;;-145.38;80.11
61939;BME280;47897;50.322;18.892;2022-10-04T07:44:37;57850.18;;;-145.38;79.86
61939;BME280;47897;50.322;18.892;2022-10-04T07:47:16;57832.76;;;-145.38;79.89
61939;BME280;47897;50.322;18.892;2022-10-04T07:49:43;57830.63;;;-145.38;79.27
61939;BME280;47897;50.322;18.892;2022-10-04T07:54:49;57841.26;;;-145.38;79.10
61939;BME280;47897;50.322;18.892;2022-10-04T08:03:33;57848.90;;;-145.38;76.49
61939;BME280;47897;50.322;18.892;2022-10-04T08:14:37;57824.26;;;-145.38;75.26
61939;BME280;47897;50.322;18.892;2022-10-04T08:17:14;57837.85;;;-145.38;75.81
61939;BME280;47897;50.322;18.892;2022-10-04T08:22:55;57821.71;;;-145.38;74.38
61939;BME280;47897;50.322;18.892;2022-10-04T08:28:01;57834.02;;;-145.38;75.03
61939;BME280;47897;50.322;18.892;2022-10-04T08:38:45;57825.96;;;-145.38;74.01
61939;BME280;47897;50.322;18.892;2022-10-04T08:41:42;57819.58;;;-145.38;73.83
61939;BME280;47897;50.322;18.892;2022-10-04T08:44:26;57825.53;;;-145.38;73.36
61939;BME280;47897;50.322;18.892;2022-10-04T08:52:54;57828.93;;;-145.38;71.83
61939;BME280;47897;50.322;18.892;2022-10-04T08:55:40;57818.30;;;-145.38;72.64
61939;BME280;47897;50.322;18.892;2022-10-04T09:11:55;57828.08;;;-145.38;70.86
61939;BME280;47897;50.322;18.892;2022-10-04T09:17:21;57818.30;;;-145.38;70.00
61939;BME280;47897;50.322;18.892;2022-10-04T09:22:47;57815.33;;;-145.38;69.27
61939;BME280;47897;50.322;18.892;2022-10-04T09:28:13;57813.21;;;-145.38;69.36
61939;BME280;47897;50.322;18.892;2022-10-04T09:34:02;57811.93;;;-145.38;69.96
61939;BME280;47897;50.322;18.892;2022-10-04T09:50:46;57820.01;;;-145.38;67.00
61939;BME280;47897;50.322;18.892;2022-10-04T09:53:28;57817.03;;;-145.38;67.10
61939;BME280;47897;50.322;18.892;2022-10-04T09:56:16;57786.01;;;-145.38;67.83
61939;BME280;47897;50.322;18.892;2022-10-04T10:07:24;57806.83;;;-145.38;65.52
61939;BME280;47897;50.322;18.892;2022-10-04T10:33:10;57815.76;;;-145.38;64.95
61939;BME280;47897;50.322;18.892;2022-10-04T10:43:58;57785.59;;;-145.38;63.22
61939;BME280;47897;50.322;18.892;2022-10-04T10:55:29;57811.08;;;-145.38;62.45
61939;BME280;47897;50.322;18.892;2022-10-04T11:09:41;57801.30;;;-145.38;57.69
61939;BME280;47897;50.322;18.892;2022-10-04T11:51:45;57790.69;;;-145.38;56.49
61939;BME280;47897;50.322;18.892;2022-10-04T11:57:49;57800.89;;;-145.38;56.56
61939;BME280;47897;50.322;18.892;2022-10-04T12:00:14;57789.41;;;-145.38;56.61
61939;BME280;47897;50.322;18.892;2022-10-04T12:06:08;57789.41;;;-145.38;56.91
61939;BME280;47897;50.322;18.892;2022-10-04T12:20:09;57783.89;;;-145.38;55.36
61939;BME280;47897;50.322;18.892;2022-10-04T12:37:01;57794.09;;;-145.38;53.60
61939;BME280;47897;50.322;18.892;2022-10-04T12:42:28;57780.49;;;-145.38;54.67
61939;BME280;47897;50.322;18.892;2022-10-04T12:50:55;57785.59;;;-145.38;53.89
61939;BME280;47897;50.322;18.892;2022-10-04T12:59:13;57772.84;;;-145.38;53.88
61939;BME280;47897;50.322;18.892;2022-10-04T13:15:42;57777.09;;;-145.38;54.76
61939;BME280;47897;50.322;18.892;2022-10-04T13:18:30;57787.71;;;-145.38;54.75
61939;BME280;47897;50.322;18.892;2022-10-04T13:20:59;57777.94;;;-145.38;55.62
61939;BME280;47897;50.322;18.892;2022-10-04T13:28:57;57777.94;;;-145.38;54.35
61939;BME280;47897;50.322;18.892;2022-10-04T13:42:46;57783.04;;;-145.38;53.21
61939;BME280;47897;50.322;18.892;2022-10-04T13:48:16;57791.11;;;-145.38;53.16
61939;BME280;47897;50.322;18.892;2022-10-04T13:51:02;57793.23;;;-145.38;53.32
61939;BME280;47897;50.322;18.892;2022-10-04T13:53:56;57776.24;;;-145.38;53.12
61939;BME280;47897;50.322;18.892;2022-10-04T14:05:11;57775.39;;;-145.38;53.69
61939;BME280;47897;50.322;18.892;2022-10-04T14:40:51;57786.44;;;-145.38;55.73
61939;BME280;47897;50.322;18.892;2022-10-04T14:43:10;57799.61;;;-145.38;55.20
61939;BME280;47897;50.322;18.892;2022-10-04T14:53:59;57785.59;;;-145.38;55.39
61939;BME280;47897;50.322;18.892;2022-10-04T15:07:30;57778.36;;;-145.38;55.93
61939;BME280;47897;50.322;18.892;2022-10-04T15:10:21;57777.51;;;-145.38;55.99
61939;BME280;47897;50.322;18.892;2022-10-04T15:21:09;57780.06;;;-145.38;56.58
61939;BME280;47897;50.322;18.892;2022-10-04T15:23:45;57780.06;;;-145.38;57.20
61939;BME280;47897;50.322;18.892;2022-10-04T15:40:23;57800.46;;;-145.38;60.26
61939;BME280;47897;50.322;18.892;2022-10-04T15:56:55;57798.34;;;-145.38;62.23
61939;BME280;47897;50.322;18.892;2022-10-04T16:05:13;57802.59;;;-145.38;63.16
61939;BME280;47897;50.322;18.892;2022-10-04T16:10:28;57808.53;;;-145.38;63.68
61939;BME280;47897;50.322;18.892;2022-10-04T16:13:18;57790.69;;;-145.38;63.92
61939;BME280;47897;50.322;18.892;2022-10-04T16:16:30;57797.06;;;-145.38;64.23
61939;BME280;47897;50.322;18.892;2022-10-04T16:19:10;57799.61;;;-145.38;64.54
61939;BME280;47897;50.322;18.892;2022-10-04T16:32:26;57798.34;;;-145.38;65.36
61939;BME280;47897;50.322;18.892;2022-10-04T16:38:21;57779.64;;;-145.38;65.68
61939;BME280;47897;50.322;18.892;2022-10-04T16:45:41;57806.83;;;-145.38;66.09
61939;BME280;47897;50.322;18.892;2022-10-04T16:56:12;57801.74;;;-145.38;66.55
61939;BME280;47897;50.322;18.892;2022-10-04T16:58:50;57797.91;;;-145.38;66.70
61939;BME280;47897;50.322;18.892;2022-10-04T17:06:41;57800.89;;;-145.38;66.88
61939;BME280;47897;50.322;18.892;2022-10-04T17:11:43;57793.66;;;-145.38;67.22
61939;BME280;47897;50.322;18.892;2022-10-04T17:17:03;57817.88;;;-145.38;67.44
61939;BME280;47897;50.322;18.892;2022-10-04T17:19:49;57805.14;;;-145.38;67.42
61939;BME280;47897;50.322;18.892;2022-10-04T17:24:54;57801.73;;;-145.38;67.50
61939;BME280;47897;50.322;18.892;2022-10-04T17:27:43;57797.49;;;-145.38;67.86
61939;BME280;47897;50.322;18.892;2022-10-04T17:30:19;57803.44;;;-145.38;68.28
61939;BME280;47897;50.322;18.892;2022-10-04T17:44:05;57797.06;;;-145.38;68.66
61939;BME280;47897;50.322;18.892;2022-10-04T17:46:49;57802.16;;;-145.38;68.86
61939;BME280;47897;50.322;18.892;2022-10-04T17:52:17;57788.14;;;-145.38;68.96
61939;BME280;47897;50.322;18.892;2022-10-04T17:55:23;57790.69;;;-145.38;69.23
61939;BME280;47897;50.322;18.892;2022-10-04T17:58:43;57825.96;;;-145.38;69.21
61939;BME280;47897;50.322;18.892;2022-10-04T18:01:14;57788.14;;;-145.38;69.20
61939;BME280;47897;50.322;18.892;2022-10-04T18:03:44;57796.21;;;-145.38;69.15
61939;BME280;47897;50.322;18.892;2022-10-04T18:06:41;57799.19;;;-145.38;69.07
61939;BME280;47897;50.322;18.892;2022-10-04T18:09:21;57796.21;;;-145.38;69.33
61939;BME280;47897;50.322;18.892;2022-10-04T18:11:51;57805.14;;;-145.38;69.71
61939;BME280;47897;50.322;18.892;2022-10-04T18:14:50;57799.19;;;-145.38;69.77
61939;BME280;47897;50.322;18.892;2022-10-04T18:22:50;57797.06;;;-145.38;69.95
61939;BME280;47897;50.322;18.892;2022-10-04T18:25:24;57788.14;;;-145.38;69.85
61939;BME280;47897;50.322;18.892;2022-10-04T18:33:20;57791.11;;;-145.38;69.87
61939;BME280;47897;50.322;18.892;2022-10-04T18:35:59;57799.61;;;-145.38;69.87
61939;BME280;47897;50.322;18.892;2022-10-04T18:38:30;57784.74;;;-145.38;69.82
61939;BME280;47897;50.322;18.892;2022-10-04T18:41:01;57803.43;;;-145.38;69.93
61939;BME280;47897;50.322;18.892;2022-10-04T18:43:36;57806.84;;;-145.38;69.98
61939;BME280;47897;50.322;18.892;2022-10-04T18:46:27;57797.48;;;-145.38;69.91
61939;BME280;47897;50.322;18.892;2022-10-04T18:49:17;57796.64;;;-145.38;69.83
61939;BME280;47897;50.322;18.892;2022-10-04T18:57:40;57794.09;;;-145.38;70.10
61939;BME280;47897;50.322;18.892;2022-10-04T19:00:33;57797.91;;;-145.38;69.90
61939;BME280;47897;50.322;18.892;2022-10-04T19:06:25;57817.88;;;-145.38;69.99
61939;BME280;47897;50.322;18.892;2022-10-04T19:11:45;57800.88;;;-145.38;70.10
61939;BME280;47897;50.322;18.892;2022-10-04T19:14:33;57780.49;;;-145.38;70.16
61939;BME280;47897;50.322;18.892;2022-10-04T19:22:43;57794.09;;;-145.38;70.33
61939;BME280;47897;50.322;18.892;2022-10-04T19:25:15;57802.16;;;-145.38;70.63
61939;BME280;47897;50.322;18.892;2022-10-04T19:27:48;57804.29;;;-145.38;70.70
61939;BME280;47897;50.322;18.892;2022-10-04T19:30:18;57786.01;;;-145.38;71.05
61939;BME280;47897;50.322;18.892;2022-10-04T19:43:12;57786.44;;;-145.38;71.78
61939;BME280;47897;50.322;18.892;2022-10-04T19:48:27;57792.81;;;-145.38;71.84
61939;BME280;47897;50.322;18.892;2022-10-04T19:51:03;57786.44;;;-145.38;71.98
61939;BME280;47897;50.322;18.892;2022-10-04T19:53:40;57795.36;;;-145.38;72.13
61939;BME280;47897;50.322;18.892;2022-10-04T19:56:23;57798.76;;;-145.38;72.07
61939;BME280;47897;50.322;18.892;2022-10-04T19:59:16;57789.84;;;-145.38;72.19
61939;BME280;47897;50.322;18.892;2022-10-04T20:01:44;57801.73;;;-145.38;72.19
61939;BME280;47897;50.322;18.892;2022-10-04T20:04:17;57790.69;;;-145.38;72.01
61939;BME280;47897;50.322;18.892;2022-10-04T20:07:17;57793.66;;;-145.38;72.10
61939;BME280;47897;50.322;18.892;2022-10-04T20:17:48;57795.36;;;-145.38;71.97
61939;BME280;47897;50.322;18.892;2022-10-04T20:21:02;57784.31;;;-145.38;71.68
61939;BME280;47897;50.322;18.892;2022-10-04T20:23:03;57793.24;;;-145.38;71.78
61939;BME280;47897;50.322;18.892;2022-10-04T20:28:08;57777.09;;;-145.38;72.02
61939;BME280;47897;50.322;18.892;2022-10-04T20:30:48;57780.06;;;-145.38;72.07
61939;BME280;47897;50.322;18.892;2022-10-04T20:36:04;57786.86;;;-145.38;71.80
61939;BME280;47897;50.322;18.892;2022-10-04T20:41:41;57774.96;;;-145.38;72.01
61939;BME280;47897;50.322;18.892;2022-10-04T20:45:21;57769.86;;;-145.38;71.95
61939;BME280;47897;50.322;18.892;2022-10-04T20:50:34;57787.29;;;-145.38;71.97
61939;BME280;47897;50.322;18.892;2022-10-04T20:53:02;57794.94;;;-145.38;72.06
61939;BME280;47897;50.322;18.892;2022-10-04T20:55:31;57792.80;;;-145.38;71.99
61939;BME280;47897;50.322;18.892;2022-10-04T21:00:54;57785.59;;;-145.38;71.88
61939;BME280;47897;50.322;18.892;2022-10-04T21:03:21;57784.31;;;-145.38;72.05
61939;BME280;47897;50.322;18.892;2022-10-04T21:05:59;57779.64;;;-145.38;71.86
61939;BME280;47897;50.322;18.892;2022-10-04T21:08:26;57788.56;;;-145.38;72.01
61939;BME280;47897;50.322;18.892;2022-10-04T21:13:48;57774.11;;;-145.38;71.82
61939;BME280;47897;50.322;18.892;2022-10-04T21:16:38;57780.06;;;-145.38;71.99
61939;BME280;47897;50.322;18.892;2022-10-04T21:19:28;57785.16;;;-145.38;72.26
61939;BME280;47897;50.322;18.892;2022-10-04T21:21:54;57777.09;;;-145.38;72.13
61939;BME280;47897;50.322;18.892;2022-10-04T21:26:59;57787.71;;;-145.38;72.00
61939;BME280;47897;50.322;18.892;2022-10-04T21:29:25;57784.31;;;-145.38;71.88
61939;BME280;47897;50.322;18.892;2022-10-04T21:31:50;57778.79;;;-145.38;71.89
61939;BME280;47897;50.322;18.892;2022-10-04T21:34:16;57796.63;;;-145.38;71.87
61939;BME280;47897;50.322;18.892;2022-10-04T21:36:41;57790.69;;;-145.38;71.91
61939;BME280;47897;50.322;18.892;2022-10-04T21:39:07;57773.69;;;-145.38;71.77
61939;BME280;47897;50.322;18.892;2022-10-04T21:41:33;57788.14;;;-145.38;71.97
61939;BME280;47897;50.322;18.892;2022-10-04T21:43:59;57793.66;;;-145.38;71.80
61939;BME280;47897;50.322;18.892;2022-10-04T21:46:24;57783.04;;;-145.38;72.03
61939;BME280;47897;50.322;18.892;2022-10-04T21:48:50;57796.21;;;-145.38;71.96
61939;BME280;47897;50.322;18.892;2022-10-04T21:51:16;57787.71;;;-145.38;71.99
61939;BME280;47897;50.322;18.892;2022-10-04T21:53:41;57773.69;;;-145.38;71.91
61939;BME280;47897;50.322;18.892;2022-10-04T21:56:07;57784.74;;;-145.38;72.17
61939;BME280;47897;50.322;18.892;2022-10-04T21:58:33;57781.34;;;-145.38;71.96
61939;BME280;47897;50.322;18.892;2022-10-04T22:00:58;57784.74;;;-145.38;72.08
61939;BME280;47897;50.322;18.892;2022-10-04T22:03:24;57786.86;;;-145.38;71.95
61939;BME280;47897;50.322;18.892;2022-10-04T22:06:09;57772.42;;;-145.38;72.13
61939;BME280;47897;50.322;18.892;2022-10-04T22:08:53;57775.81;;;-145.38;71.99
61939;BME280;47897;50.322;18.892;2022-10-04T22:11:37;57782.61;;;-145.38;72.11
61939;BME280;47897;50.322;18.892;2022-10-04T22:14:22;57786.44;;;-145.38;72.20
61939;BME280;47897;50.322;18.892;2022-10-04T22:17:06;57780.91;;;-145.38;72.16
61939;BME280;47897;50.322;18.892;2022-10-04T22:19:50;57782.19;;;-145.38;72.32
61939;BME280;47897;50.322;18.892;2022-10-04T22:22:36;57781.34;;;-145.38;72.24
61939;BME280;47897;50.322;18.892;2022-10-04T22:25:22;57770.71;;;-145.38;72.12
61939;BME280;47897;50.322;18.892;2022-10-04T22:28:24;57766.04;;;-145.38;72.27
61939;BME280;47897;50.322;18.892;2022-10-04T22:31:11;57765.61;;;-145.38;72.16
61939;BME280;47897;50.322;18.892;2022-10-04T22:33:56;57774.54;;;-145.38;72.33
61939;BME280;47897;50.322;18.892;2022-10-04T22:36:40;57788.99;;;-145.38;72.59
61939;BME280;47897;50.322;18.892;2022-10-04T22:39:25;57777.51;;;-145.38;72.77
61939;BME280;47897;50.322;18.892;2022-10-04T22:42:12;57783.89;;;-145.38;72.79
61939;BME280;47897;50.322;18.892;2022-10-04T22:45:00;57760.94;;;-145.38;72.80
61939;BME280;47897;50.322;18.892;2022-10-04T22:47:44;57783.04;;;-145.38;72.75
61939;BME280;47897;50.322;18.892;2022-10-04T22:50:36;57775.81;;;-145.38;72.76
61939;BME280;47897;50.322;18.892;2022-10-04T22:53:22;57787.71;;;-145.38;72.45
61939;BME280;47897;50.322;18.892;2022-10-04T22:56:06;57767.74;;;-145.38;72.94
61939;BME280;47897;50.322;18.892;2022-10-04T22:58:51;57765.62;;;-145.38;72.98
61939;BME280;47897;50.322;18.892;2022-10-04T23:01:37;57785.16;;;-145.38;72.86
61939;BME280;47897;50.322;18.892;2022-10-04T23:04:23;57763.91;;;-145.38;72.89
61939;BME280;47897;50.322;18.892;2022-10-04T23:07:08;57768.16;;;-145.38;72.74
61939;BME280;47897;50.322;18.892;2022-10-04T23:09:52;57760.52;;;-145.38;73.07
61939;BME280;47897;50.322;18.892;2022-10-04T23:12:37;57756.26;;;-145.38;73.26